Time;durP1;ratioP1;P1;durP2;ratioP2;P2;SDS_P1;SDS_P2;PMS_P1;PMS_P2;Temp;Humidity;BMP_temperature;BMP_pressure;BME280_temperature;BME280_humidity;BME280_pressure;Samples;Min_cycle;Max_cycle;Signal;HPM_P1;HPM_P2
2022/11/21 00:00:59;;;;;;;1.25;0.43;;;;;;;-0.15;100.00;100107.16;5038526;28;20394;-63
2022/11/21 00:03:24;;;;;;;5.28;0.95;;;;;;;-0.15;100.00;100104.56;5017468;28;20029;-61
2022/11/21 00:05:50;;;;;;;2.92;0.52;;;;;;;-0.11;100.00;100105.94;5034452;28;20394;-62
2022/11/21 00:08:17;;;;;;;4.60;0.73;;;;;;;-0.09;100.00;100117.88;5040690;28;20037;-61
2022/11/21 00:10:43;;;;;;;1.52;0.20;;;;;;;-0.07;100.00;100125.56;5017622;28;20458;-63
2022/11/21 00:13:18;;;;;;;4.70;0.22;;;;;;;0.00;100.00;100131.94;5039119;28;20079;-60
2022/11/21 00:15:43;;;;;;;1.33;0.20;;;;;;;0.06;100.00;100135.78;5039852;28;20032;-58
2022/11/21 00:18:10;;;;;;;1.48;0.82;;;;;;;0.11;100.00;100139.63;5031991;28;20033;-61
2022/11/21 00:20:36;;;;;;;2.67;0.73;;;;;;;0.14;100.00;100138.56;5036272;28;20028;-61
2022/11/21 00:23:01;;;;;;;3.50;0.98;;;;;;;0.15;100.00;100135.78;5032695;28;20030;-59
2022/11/21 00:25:27;;;;;;;1.63;0.40;;;;;;;0.15;100.00;100142.78;5038572;28;20380;-61
2022/11/21 00:27:52;;;;;;;0.47;0.38;;;;;;;0.14;100.00;100139.38;5034677;28;20022;-61
2022/11/21 00:30:18;;;;;;;1.58;0.50;;;;;;;0.16;100.00;100137.47;5033212;28;20064;-62
2022/11/21 00:32:43;;;;;;;5.10;0.55;;;;;;;0.20;100.00;100131.00;5038052;28;20025;-62
2022/11/21 00:35:08;;;;;;;2.05;0.40;;;;;;;0.21;100.00;100135.28;5039606;28;20021;-60
2022/11/21 01:23:49;;;;;;;0.57;0.52;;;;;;;0.40;100.00;100069.28;3363462;28;21805;-63
2022/11/21 01:26:17;;;;;;;5.57;0.95;;;;;;;0.41;100.00;100059.69;5009783;28;20068;-62
2022/11/21 01:28:43;;;;;;;0.45;0.30;;;;;;;0.42;100.00;100067.38;5008126;28;20060;-63
2022/11/21 01:31:14;;;;;;;2.42;0.73;;;;;;;0.45;100.00;100063.69;5006819;28;20057;-62
2022/11/21 01:33:40;;;;;;;6.72;1.05;;;;;;;0.50;100.00;100064.09;5004623;28;20527;-62
2022/11/21 01:36:20;;;;;;;5.82;0.85;;;;;;;0.51;100.00;100051.88;5007289;28;20029;-61
2022/11/21 01:38:48;;;;;;;7.90;0.93;;;;;;;0.52;100.00;100054.34;5007257;28;20372;-61
2022/11/21 01:41:17;;;;;;;1.38;0.30;;;;;;;0.53;100.00;100050.78;5008989;28;20027;-61
2022/11/21 01:43:43;;;;;;;6.30;0.55;;;;;;;0.52;100.00;100046.53;5010640;28;20386;-63
2022/11/21 01:46:08;;;;;;;2.80;0.40;;;;;;;0.48;100.00;100047.75;5006149;28;20414;-62
2022/11/21 01:48:39;;;;;;;5.65;0.40;;;;;;;0.44;100.00;100041.16;5008687;28;20033;-62
2022/11/21 01:51:14;;;;;;;1.13;0.47;;;;;;;0.43;100.00;100045.53;5002066;28;20407;-62
2022/11/21 01:53:43;;;;;;;1.67;0.95;;;;;;;0.40;100.00;100031.97;5007465;28;20104;-61
2022/11/21 01:56:09;;;;;;;0.63;0.52;;;;;;;0.41;100.00;100029.22;5002351;28;20344;-60
2022/11/21 01:58:36;;;;;;;0.98;0.45;;;;;;;0.43;100.00;100019.47;5004927;28;20030;-60
2022/11/21 02:01:02;;;;;;;0.40;0.40;;;;;;;0.46;100.00;100023.56;5007364;28;20053;-62
2022/11/21 02:03:32;;;;;;;4.32;1.13;;;;;;;0.46;100.00;100018.34;5009171;28;20476;-62
2022/11/21 02:05:58;;;;;;;1.83;1.02;;;;;;;0.47;100.00;100019.22;5008990;28;20034;-61
2022/11/21 02:08:25;;;;;;;5.68;0.60;;;;;;;0.48;100.00;100007.81;5007242;28;20415;-62
2022/11/21 02:11:26;;;;;;;1.13;1.00;;;;;;;0.49;100.00;100007.69;5020703;28;20033;-62
2022/11/21 02:13:51;;;;;;;4.75;1.25;;;;;;;0.46;100.00;99989.66;5024445;28;20030;-61
2022/11/21 02:16:17;;;;;;;6.40;0.93;;;;;;;0.43;100.00;99990.75;5008845;28;20055;-61
2022/11/21 02:18:42;;;;;;;1.45;1.02;;;;;;;0.42;100.00;99988.31;5009743;28;20400;-62
2022/11/21 02:21:29;;;;;;;4.75;0.77;;;;;;;0.42;100.00;99978.69;5004831;28;20387;-62
2022/11/21 02:24:29;;;;;;;4.55;0.98;;;;;;;0.42;100.00;99976.09;5009096;28;20037;-62
2022/11/21 02:26:54;;;;;;;2.72;1.00;;;;;;;0.35;100.00;99963.72;5046170;28;20068;-62
2022/11/21 02:29:20;;;;;;;0.77;0.50;;;;;;;0.31;100.00;99967.56;5040055;28;20429;-61
2022/11/21 02:31:45;;;;;;;1.70;0.93;;;;;;;0.25;100.00;99958.50;5050676;28;20021;-62
2022/11/21 02:34:10;;;;;;;3.28;0.85;;;;;;;0.22;100.00;99951.78;5037920;28;20282;-61
2022/11/21 02:36:45;;;;;;;4.32;1.90;;;;;;;0.21;100.00;99950.16;5048196;28;20059;-59
2022/11/21 02:39:18;;;;;;;3.95;0.70;;;;;;;0.22;100.00;99949.19;5053637;28;20064;-62
2022/11/21 02:41:50;;;;;;;2.72;1.23;;;;;;;0.21;100.00;99947.53;5048187;28;20091;-61
2022/11/21 02:44:25;;;;;;;1.60;0.85;;;;;;;0.22;100.00;99943.97;5044594;28;20029;-61
2022/11/21 02:46:51;;;;;;;3.03;0.50;;;;;;;0.23;100.00;99939.56;5047527;28;20530;-60
2022/11/21 02:49:26;;;;;;;1.45;1.10;;;;;;;0.26;100.00;99934.09;5028539;28;20025;-61
2022/11/21 02:51:51;;;;;;;3.78;1.63;;;;;;;0.22;100.00;99938.75;5043177;28;20548;-62
2022/11/21 02:54:17;;;;;;;1.85;1.60;;;;;;;0.22;100.00;99930.94;5044376;28;20116;-61
2022/11/21 02:56:42;;;;;;;3.00;1.02;;;;;;;0.20;100.00;99919.81;5028929;28;20024;-62
2022/11/21 02:59:07;;;;;;;1.95;1.27;;;;;;;0.21;100.00;99913.66;5045328;28;20417;-61
2022/11/21 03:01:33;;;;;;;4.55;1.23;;;;;;;0.20;100.00;99900.72;5030123;28;20099;-62
2022/11/21 03:03:58;;;;;;;1.08;0.65;;;;;;;0.21;100.00;99905.00;5044756;28;20076;-62
2022/11/21 03:06:23;;;;;;;3.60;0.73;;;;;;;0.21;100.00;99900.59;5029317;28;20066;-62
2022/11/21 03:08:49;;;;;;;4.00;1.80;;;;;;;0.21;100.00;99900.59;5038525;28;20036;-62
2022/11/21 03:11:14;;;;;;;4.38;0.93;;;;;;;0.18;100.00;99900.03;5037624;28;20039;-61
2022/11/21 03:13:39;;;;;;;11.80;2.17;;;;;;;0.17;100.00;99898.41;5043344;28;20513;-62
2022/11/21 03:16:05;;;;;;;2.63;1.33;;;;;;;0.18;100.00;99900.03;5048961;28;20052;-61
2022/11/21 03:18:30;;;;;;;1.45;0.63;;;;;;;0.16;100.00;99887.16;5044847;28;20064;-62
2022/11/21 03:20:56;;;;;;;2.22;0.93;;;;;;;0.19;100.00;99888.66;5042586;28;20458;-62
2022/11/21 03:23:22;;;;;;;2.88;1.08;;;;;;;0.18;100.00;99869.59;5041106;28;20812;-62
2022/11/21 03:25:47;;;;;;;2.38;0.65;;;;;;;0.18;100.00;99877.44;5025224;28;20067;-60
2022/11/21 03:28:12;;;;;;;0.90;0.90;;;;;;;0.19;100.00;99871.22;5036271;28;20052;-62
2022/11/21 03:30:38;;;;;;;3.60;0.52;;;;;;;0.19;100.00;99858.19;5041310;28;20056;-62
2022/11/21 03:33:03;;;;;;;1.88;0.63;;;;;;;0.20;100.00;99857.22;5032421;28;20036;-62
2022/11/21 03:35:28;;;;;;;3.40;0.80;;;;;;;0.21;100.00;99839.81;5035935;28;20105;-61
2022/11/21 03:37:54;;;;;;;3.63;0.85;;;;;;;0.24;100.00;99831.72;5036618;28;20033;-62
2022/11/21 03:40:19;;;;;;;1.55;0.90;;;;;;;0.23;100.00;99824.84;5039534;28;20115;-62
2022/11/21 03:42:45;;;;;;;4.13;0.47;;;;;;;0.25;100.00;99822.09;5042466;28;20033;-61
2022/11/21 03:45:10;;;;;;;4.75;1.08;;;;;;;0.28;100.00;99811.38;5043959;28;20045;-63
2022/11/21 03:47:35;;;;;;;4.38;0.50;;;;;;;0.29;100.00;99807.84;5043510;28;20029;-62
2022/11/21 03:50:01;;;;;;;1.00;0.45;;;;;;;0.24;100.00;99795.22;5040250;28;20533;-60
2022/11/21 03:52:26;;;;;;;1.63;0.50;;;;;;;0.19;100.00;99800.03;5037269;28;20026;-59
2022/11/21 03:54:51;;;;;;;1.42;0.90;;;;;;;0.15;100.00;99793.44;5040071;28;20026;-61
2022/11/21 03:57:17;;;;;;;0.73;0.55;;;;;;;0.13;100.00;99787.53;5017132;28;20031;-62
2022/11/21 03:59:42;;;;;;;1.00;0.43;;;;;;;0.12;100.00;99778.06;5041090;28;20036;-61
2022/11/21 04:02:08;;;;;;;2.67;0.40;;;;;;;0.11;100.00;99773.84;5040144;28;20025;-62
2022/11/21 04:04:33;;;;;;;2.47;0.38;;;;;;;0.12;100.00;99765.03;5042479;28;20126;-61
2022/11/21 04:06:58;;;;;;;1.45;0.35;;;;;;;0.14;100.00;99748.28;5041581;28;20061;-62
2022/11/21 04:09:23;;;;;;;0.20;0.20;;;;;;;0.13;100.00;99735.38;5035484;28;20127;-61
2022/11/21 04:11:49;;;;;;;8.23;1.25;;;;;;;0.09;100.00;99729.66;5041949;28;20116;-61
2022/11/21 04:14:14;;;;;;;1.65;0.47;;;;;;;0.07;100.00;99728.97;5040950;28;20044;-62
2022/11/21 04:16:39;;;;;;;0.63;0.55;;;;;;;0.05;100.00;99719.66;5027522;28;20511;-62
2022/11/21 04:19:05;;;;;;;0.52;0.20;;;;;;;0.02;100.00;99712.94;5034822;28;20041;-62
2022/11/21 04:21:30;;;;;;;2.20;1.35;;;;;;;-0.02;100.00;99711.59;5045614;28;20025;-62
2022/11/21 04:23:55;;;;;;;0.98;0.52;;;;;;;-0.05;100.00;99711.88;5042522;28;20971;-62
2022/11/21 04:26:21;;;;;;;4.65;0.75;;;;;;;-0.08;100.00;99707.78;5049654;28;20037;-61
2022/11/21 04:28:46;;;;;;;3.00;0.60;;;;;;;-0.10;100.00;99707.06;5040096;28;20052;-62
2022/11/21 04:31:12;;;;;;;4.45;1.25;;;;;;;-0.14;100.00;99695.28;5046705;28;20167;-62
2022/11/21 04:33:38;;;;;;;4.18;0.80;;;;;;;-0.19;100.00;99678.44;5048509;28;20401;-61
2022/11/21 04:36:04;;;;;;;3.33;1.10;;;;;;;-0.24;100.00;99671.84;5044600;28;20390;-60
2022/11/21 04:38:29;;;;;;;1.17;0.73;;;;;;;-0.26;100.00;99667.75;5046477;28;20037;-61
2022/11/21 04:40:54;;;;;;;1.95;0.85;;;;;;;-0.29;100.00;99655.81;5033358;28;20025;-61
2022/11/21 04:43:20;;;;;;;0.88;0.22;;;;;;;-0.31;100.00;99660.38;5042814;28;20104;-62
2022/11/21 04:45:45;;;;;;;1.55;0.98;;;;;;;-0.31;100.00;99657.78;5044456;28;20191;-61
2022/11/21 04:48:11;;;;;;;0.70;0.52;;;;;;;-0.32;100.00;99668.31;5042606;28;20083;-60
2022/11/21 04:50:36;;;;;;;2.25;0.63;;;;;;;-0.31;100.00;99662.97;5038347;28;20036;-62
2022/11/21 04:53:01;;;;;;;2.63;0.43;;;;;;;-0.24;100.00;99658.81;5024013;28;20053;-62
2022/11/21 04:55:30;;;;;;;1.45;0.30;;;;;;;-0.15;100.00;99640.72;5049681;28;20029;-61
2022/11/21 04:57:55;;;;;;;2.13;0.75;;;;;;;-0.12;100.00;99637.81;5035321;28;20433;-62
2022/11/21 05:00:20;;;;;;;3.13;0.70;;;;;;;-0.08;100.00;99636.56;5032510;28;20059;-59
2022/11/21 05:02:46;;;;;;;2.80;0.65;;;;;;;-0.06;100.00;99624.22;5048234;28;20662;-61
2022/11/21 05:05:11;;;;;;;3.92;0.38;;;;;;;-0.06;100.00;99617.22;5044476;28;20032;-60
2022/11/21 05:07:37;;;;;;;2.22;0.35;;;;;;;-0.06;100.00;99601.56;5046030;28;20033;-62
2022/11/21 05:10:04;;;;;;;4.47;0.60;;;;;;;-0.05;100.00;99608.44;5045545;28;20036;-61
2022/11/21 05:15:13;;;;;;;1.17;0.30;;;;;;;-0.11;100.00;99597.75;5049327;28;20036;-61
2022/11/21 05:17:39;;;;;;;3.88;0.93;;;;;;;-0.11;100.00;99592.56;5042379;28;20463;-60
2022/11/21 05:20:05;;;;;;;3.50;1.15;;;;;;;-0.08;100.00;99581.84;5054820;28;20058;-60
2022/11/21 05:22:30;;;;;;;0.43;0.20;;;;;;;-0.07;100.00;99576.50;5053870;28;20032;-62
2022/11/21 05:24:56;;;;;;;1.15;0.57;;;;;;;-0.02;100.00;99574.28;5046563;28;20053;-60
2022/11/21 05:27:21;;;;;;;1.00;0.43;;;;;;;-0.02;100.00;99571.66;5048743;28;20460;-62
2022/11/21 05:29:46;;;;;;;16.98;1.02;;;;;;;-0.01;100.00;99572.47;5050086;28;20025;-62
2022/11/21 05:32:12;;;;;;;3.08;0.50;;;;;;;0.00;100.00;99550.69;5046968;28;20032;-62
2022/11/21 05:34:37;;;;;;;1.00;0.43;;;;;;;0.03;100.00;99552.16;5037220;28;20029;-62
2022/11/21 05:37:03;;;;;;;3.00;0.30;;;;;;;0.04;100.00;99543.38;5046744;28;20025;-62
2022/11/21 05:39:28;;;;;;;4.75;1.13;;;;;;;0.02;100.00;99540.91;5049457;28;20037;-62
2022/11/21 05:41:54;;;;;;;1.25;1.20;;;;;;;0.04;100.00;99533.75;5052811;28;20029;-61
2022/11/21 05:44:19;;;;;;;1.70;0.50;;;;;;;0.04;100.00;99538.97;5047759;28;20040;-62
2022/11/21 05:46:45;;;;;;;1.05;0.30;;;;;;;0.02;100.00;99525.25;5043456;28;20021;-61
2022/11/21 05:49:11;;;;;;;2.80;0.95;;;;;;;0.00;100.00;99516.78;5043712;28;20314;-62
2022/11/21 05:51:37;;;;;;;2.25;0.25;;;;;;;-0.02;100.00;99503.91;5052805;28;20036;-60
2022/11/21 05:54:02;;;;;;;0.63;0.43;;;;;;;-0.01;100.00;99499.50;5047703;28;20401;-60
2022/11/21 05:56:28;;;;;;;2.83;0.65;;;;;;;-0.03;100.00;99485.78;5038524;28;20033;-61
2022/11/21 05:58:54;;;;;;;0.75;0.57;;;;;;;0.01;100.00;99486.34;5054152;28;20043;-61
2022/11/21 06:03:25;;;;;;;2.85;0.55;;;;;;;0.03;100.00;99485.22;5046802;28;20482;-60
2022/11/21 06:04:06;;;;;;;1.40;0.77;;;;;;;0.05;100.00;99475.44;5042338;28;20138;-63
2022/11/21 06:06:31;;;;;;;2.17;0.75;;;;;;;0.09;100.00;99463.78;5050133;28;20032;-61
2022/11/21 06:08:57;;;;;;;7.18;0.65;;;;;;;0.11;100.00;99454.00;5051107;28;20017;-61
2022/11/21 06:11:22;;;;;;;1.35;0.52;;;;;;;0.13;100.00;99451.25;5029800;28;20032;-58
2022/11/21 06:13:48;;;;;;;1.73;0.45;;;;;;;0.14;100.00;99450.28;5038582;28;20087;-61
2022/11/21 06:16:15;;;;;;;2.92;0.38;;;;;;;0.20;100.00;99447.91;5030891;28;20090;-61
2022/11/21 06:18:43;;;;;;;1.95;0.28;;;;;;;0.22;100.00;99440.75;5045970;28;20037;-62
2022/11/21 06:21:15;;;;;;;0.82;0.52;;;;;;;0.24;100.00;99424.97;5047580;28;20455;-62
2022/11/21 06:23:40;;;;;;;2.65;1.13;;;;;;;0.25;100.00;99416.16;5035661;28;20016;-62
2022/11/21 06:26:08;;;;;;;3.50;0.20;;;;;;;0.27;100.00;99405.59;5028332;28;20041;-62
2022/11/21 06:28:38;;;;;;;1.20;0.45;;;;;;;0.28;100.00;99400.22;5020686;28;20531;-62
2022/11/21 06:31:18;;;;;;;1.50;0.55;;;;;;;0.32;100.00;99401.56;5045946;28;20132;-62
2022/11/21 06:33:44;;;;;;;2.58;0.60;;;;;;;0.32;100.00;99406.78;5045277;28;20383;-62
2022/11/21 06:36:14;;;;;;;4.78;0.35;;;;;;;0.38;100.00;99407.94;5054577;28;20029;-61
2022/11/21 06:38:39;;;;;;;1.25;0.77;;;;;;;0.40;100.00;99400.81;5045169;28;20568;-62
2022/11/21 06:41:07;;;;;;;2.33;0.45;;;;;;;0.44;100.00;99389.13;5050718;28;20112;-62
2022/11/21 06:43:32;;;;;;;3.35;1.08;;;;;;;0.45;100.00;99389.91;5043606;28;20057;-60
2022/11/21 06:45:58;;;;;;;2.63;0.60;;;;;;;0.48;100.00;99384.41;5040303;28;20021;-62
2022/11/21 06:48:24;;;;;;;3.67;0.40;;;;;;;0.49;100.00;99381.66;5024044;28;20025;-62
2022/11/21 06:50:50;;;;;;;2.30;0.50;;;;;;;0.53;100.00;99382.97;5042357;28;20029;-63
2022/11/21 06:53:15;;;;;;;1.98;0.35;;;;;;;0.60;100.00;99375.34;5038037;28;20030;-61
2022/11/21 06:55:40;;;;;;;1.83;0.93;;;;;;;0.63;100.00;99375.03;5044385;28;20124;-61
2022/11/21 06:58:06;;;;;;;1.67;0.75;;;;;;;0.70;100.00;99372.63;5044343;28;20040;-61
2022/11/21 07:00:31;;;;;;;4.00;0.77;;;;;;;0.75;100.00;99362.53;5030031;28;20417;-61
2022/11/21 07:03:01;;;;;;;4.28;0.57;;;;;;;0.79;100.00;99340.38;5044262;28;20040;-60
2022/11/21 07:05:27;;;;;;;1.45;0.60;;;;;;;0.82;100.00;99334.84;5043985;28;20111;-60
2022/11/21 07:08:00;;;;;;;3.63;0.77;;;;;;;0.89;100.00;99335.06;5042642;28;20534;-61
2022/11/21 07:10:27;;;;;;;3.00;0.57;;;;;;;0.90;100.00;99326.25;5042861;28;20029;-61
2022/11/21 07:15:41;;;;;;;3.10;0.63;;;;;;;0.90;100.00;99324.44;5043393;28;20215;-61
2022/11/21 07:18:06;;;;;;;1.35;0.90;;;;;;;0.89;100.00;99322.00;5049037;28;20196;-61
2022/11/21 07:20:32;;;;;;;4.43;0.50;;;;;;;0.91;100.00;99314.84;5029482;28;20029;-60
2022/11/21 07:22:57;;;;;;;0.25;0.15;;;;;;;0.92;100.00;99296.41;5041065;28;20029;-62
2022/11/21 07:25:22;;;;;;;2.05;0.55;;;;;;;0.95;100.00;99296.06;5043037;28;20033;-61
2022/11/21 07:27:48;;;;;;;0.77;0.30;;;;;;;0.98;100.00;99287.97;5041643;28;20109;-59
2022/11/21 07:30:13;;;;;;;1.45;0.50;;;;;;;1.02;100.00;99285.84;5039813;28;20108;-61
2022/11/21 07:32:39;;;;;;;1.08;0.32;;;;;;;1.05;100.00;99280.28;5047336;28;20037;-61
2022/11/21 07:35:05;;;;;;;0.45;0.45;;;;;;;1.15;100.00;99280.16;5042321;28;20059;-61
2022/11/21 07:37:31;;;;;;;4.78;0.40;;;;;;;1.29;100.00;99280.38;5026779;28;20051;-62
2022/11/21 07:39:56;;;;;;;2.22;0.63;;;;;;;1.41;100.00;99282.66;5044946;28;20029;-61
2022/11/21 07:42:22;;;;;;;1.75;0.88;;;;;;;1.44;100.00;99270.09;5042609;28;20035;-61
2022/11/21 07:44:47;;;;;;;3.38;0.40;;;;;;;1.53;100.00;99258.66;5031259;28;20021;-60
2022/11/21 07:47:13;;;;;;;5.50;0.55;;;;;;;1.65;100.00;99263.56;5048409;28;20057;-60
2022/11/21 07:49:38;;;;;;;1.83;0.40;;;;;;;1.78;100.00;99248.19;5035571;28;20029;-62
2022/11/21 07:52:03;;;;;;;1.33;0.65;;;;;;;1.92;100.00;99244.94;5040820;28;20039;-60
2022/11/21 07:54:29;;;;;;;2.95;0.57;;;;;;;1.96;100.00;99240.19;5032541;28;20121;-62
2022/11/21 07:56:54;;;;;;;1.52;0.60;;;;;;;2.04;100.00;99237.59;5042093;28;20047;-62
2022/11/21 07:59:19;;;;;;;3.53;1.00;;;;;;;2.13;100.00;99215.63;5027377;28;20320;-62
2022/11/21 08:01:45;;;;;;;8.02;1.40;;;;;;;2.48;100.00;99197.03;5038993;28;20554;-61
2022/11/21 08:04:10;;;;;;;8.20;1.05;;;;;;;2.76;100.00;99194.78;5042605;28;20024;-61
2022/11/21 08:06:36;;;;;;;14.25;1.15;;;;;;;2.99;100.00;99207.91;5030985;28;20578;-61
2022/11/21 08:09:01;;;;;;;8.70;1.15;;;;;;;3.20;100.00;99212.53;5044493;28;20449;-59
2022/11/21 08:11:27;;;;;;;10.40;2.40;;;;;;;3.37;100.00;99211.44;5046038;28;20033;-62
2022/11/21 08:13:52;;;;;;;2.03;0.52;;;;;;;3.54;100.00;99208.66;5041557;28;20470;-60
2022/11/21 08:16:17;;;;;;;9.07;1.95;;;;;;;3.65;100.00;99205.66;5042423;28;20033;-60
2022/11/21 08:18:43;;;;;;;13.60;2.20;;;;;;;3.79;100.00;99204.03;5047138;28;20037;-60
2022/11/21 08:21:08;;;;;;;6.05;1.63;;;;;;;3.88;100.00;99206.41;5034682;28;20053;-60
2022/11/21 08:23:33;;;;;;;11.68;2.35;;;;;;;4.04;100.00;99197.56;5028913;28;20120;-61
2022/11/21 08:25:59;;;;;;;3.83;0.90;;;;;;;4.17;100.00;99198.75;5041234;28;20136;-62
2022/11/21 08:28:24;;;;;;;5.13;1.25;;;;;;;4.34;100.00;99194.97;5040116;28;20118;-62
2022/11/21 08:30:49;;;;;;;6.68;1.55;;;;;;;4.46;100.00;99188.22;5043784;28;20536;-62
2022/11/21 08:33:15;;;;;;;9.23;0.93;;;;;;;4.47;100.00;99189.88;5042081;28;20540;-63
2022/11/21 08:35:41;;;;;;;11.43;1.58;;;;;;;4.49;100.00;99182.63;5028210;28;20029;-62
2022/11/21 08:38:07;;;;;;;9.60;1.13;;;;;;;4.57;100.00;99169.41;5038607;28;20051;-61
2022/11/21 08:40:33;;;;;;;11.15;1.40;;;;;;;4.74;100.00;99156.03;5047917;28;20384;-61
2022/11/21 08:43:07;;;;;;;3.83;1.60;;;;;;;4.76;100.00;99141.72;5022063;28;20039;-62
2022/11/21 08:45:34;;;;;;;6.88;2.28;;;;;;;4.72;100.00;99134.41;5042380;28;20512;-61
2022/11/21 08:47:59;;;;;;;8.15;1.30;;;;;;;4.67;100.00;99121.81;5046138;28;20378;-62
2022/11/21 08:50:26;;;;;;;3.10;0.90;;;;;;;4.74;100.00;99133.22;5044993;28;20029;-61
2022/11/21 08:52:57;;;;;;;6.60;0.98;;;;;;;4.80;100.00;99131.66;4993732;28;20029;-62
2022/11/21 08:55:23;;;;;;;13.90;4.05;;;;;;;4.82;100.00;99124.41;5011414;28;21070;-62
2022/11/21 08:57:48;;;;;;;4.13;1.17;;;;;;;4.84;100.00;99125.03;5037699;28;20045;-59
2022/11/21 09:00:14;;;;;;;4.10;1.17;;;;;;;4.94;100.00;99128.16;5036302;28;20452;-61
2022/11/21 09:02:39;;;;;;;3.55;1.63;;;;;;;5.00;100.00;99121.34;5040851;28;20040;-62
2022/11/21 09:05:05;;;;;;;13.80;3.20;;;;;;;5.05;100.00;99110.28;5039359;28;20112;-61
2022/11/21 09:07:31;;;;;;;8.45;2.97;;;;;;;5.03;100.00;99099.94;5040467;28;20114;-61
2022/11/21 09:09:56;;;;;;;11.23;1.35;;;;;;;5.05;100.00;99076.13;5035421;28;20040;-62
2022/11/21 09:12:21;;;;;;;9.73;1.20;;;;;;;5.07;100.00;99068.88;5043030;28;20326;-63
2022/11/21 09:20:15;;;;;;;8.40;0.88;;;;;;;5.06;100.00;99049.69;5043365;28;20051;-59
2022/11/21 09:22:40;;;;;;;13.55;3.10;;;;;;;5.12;100.00;99035.78;5039712;28;20417;-60
2022/11/21 09:25:06;;;;;;;8.82;1.25;;;;;;;5.13;100.00;99016.38;5041021;28;20155;-60
2022/11/21 09:27:31;;;;;;;7.57;2.33;;;;;;;5.14;100.00;99014.56;5038323;28;20298;-59
2022/11/21 09:29:56;;;;;;;7.57;1.50;;;;;;;5.11;100.00;99007.88;5033762;28;20080;-59
2022/11/21 09:32:22;;;;;;;9.90;1.80;;;;;;;5.15;100.00;99003.06;5038883;28;20115;-59
2022/11/21 09:34:48;;;;;;;8.15;2.53;;;;;;;5.14;100.00;98983.03;5042244;28;20036;-59
2022/11/21 09:37:13;;;;;;;6.80;2.45;;;;;;;5.19;100.00;98967.50;5040176;28;20468;-59
2022/11/21 09:39:38;;;;;;;11.63;1.95;;;;;;;5.27;100.00;98954.22;5041528;28;20091;-61
2022/11/21 09:42:22;;;;;;;3.47;1.20;;;;;;;5.35;100.00;98951.44;5045853;28;20060;-61
2022/11/21 09:45:03;;;;;;;8.80;2.42;;;;;;;5.39;100.00;98942.13;5047014;28;20029;-61
2022/11/21 09:47:35;;;;;;;6.90;2.33;;;;;;;5.46;100.00;98911.44;5038791;28;20071;-60
2022/11/21 09:50:11;;;;;;;4.82;0.82;;;;;;;5.50;100.00;98903.16;5038579;28;20040;-61
2022/11/21 09:53:21;;;;;;;6.35;1.65;;;;;;;5.56;100.00;98897.94;5035520;28;20036;-61
2022/11/21 09:56:00;;;;;;;10.35;1.92;;;;;;;5.57;100.00;98896.09;5029185;28;20049;-61
2022/11/21 09:58:40;;;;;;;4.25;1.77;;;;;;;5.60;100.00;98879.94;5043858;28;20066;-62
2022/11/21 10:01:11;;;;;;;5.60;0.63;;;;;;;5.63;100.00;98866.41;5037879;28;20514;-61
2022/11/21 10:03:43;;;;;;;7.47;1.87;;;;;;;5.77;100.00;98870.66;5044983;28;20127;-62
2022/11/21 10:06:24;;;;;;;12.27;2.55;;;;;;;5.85;100.00;98857.34;5043045;28;20274;-63
2022/11/21 10:09:08;;;;;;;8.18;0.80;;;;;;;5.83;100.00;98846.19;5014119;28;20209;-62
2022/11/21 10:15:17;;;;;;;9.55;1.60;;;;;;;5.98;100.00;98842.63;5010882;28;20044;-62
2022/11/21 10:17:47;;;;;;;17.20;2.28;;;;;;;6.11;100.00;98829.47;5035445;28;20041;-62
2022/11/21 10:20:30;;;;;;;7.10;0.82;;;;;;;6.19;100.00;98831.88;5032152;28;20041;-60
2022/11/21 10:23:17;;;;;;;13.65;1.70;;;;;;;6.15;100.00;98822.78;5040752;28;20064;-63
2022/11/21 10:25:53;;;;;;;12.20;3.28;;;;;;;6.17;100.00;98820.78;5035502;28;20096;-59
2022/11/21 10:28:45;;;;;;;11.68;1.65;;;;;;;6.17;100.00;98804.97;5042179;28;20041;-60
2022/11/21 10:31:13;;;;;;;11.38;1.55;;;;;;;6.20;100.00;98801.94;5038886;28;20037;-60
2022/11/21 10:33:39;;;;;;;10.95;1.63;;;;;;;6.22;100.00;98793.81;5041246;28;20047;-61
2022/11/21 10:36:12;;;;;;;14.65;1.35;;;;;;;6.27;100.00;98780.84;5041316;28;20029;-61
2022/11/21 10:38:40;;;;;;;8.73;1.15;;;;;;;6.28;100.00;98771.97;5033467;28;20140;-62
2022/11/21 10:41:39;;;;;;;9.98;1.55;;;;;;;6.32;100.00;98752.09;5041210;28;20027;-59
2022/11/21 10:47:26;;;;;;;5.65;0.98;;;;;;;6.37;100.00;98730.44;5040468;28;20039;-61
2022/11/21 10:49:56;;;;;;;;;;;;;;;6.42;100.00;98709.56;5040556;28;20044;-63
2022/11/21 10:52:24;;;;;;;4.68;1.33;;;;;;;6.40;100.00;98708.97;5033201;28;20442;-62
2022/11/21 10:55:04;;;;;;;7.88;1.48;;;;;;;6.51;100.00;98697.81;5043461;28;20075;-63
2022/11/21 10:57:42;;;;;;;3.92;1.38;;;;;;;6.53;100.00;98685.22;5041583;28;20037;-62
2022/11/21 11:00:13;;;;;;;9.38;1.10;;;;;;;6.54;100.00;98671.03;5039572;28;20021;-63
2022/11/21 11:03:03;;;;;;;14.07;1.90;;;;;;;6.55;100.00;98651.59;5041663;28;20037;-62
2022/11/21 11:05:31;;;;;;;9.57;1.05;;;;;;;6.51;100.00;98640.69;5034204;28;20041;-63
2022/11/21 11:08:01;;;;;;;13.10;1.50;;;;;;;6.55;100.00;98628.69;5046945;28;20619;-62
2022/11/21 11:10:27;;;;;;;9.63;2.97;;;;;;;6.60;100.00;98617.53;5037446;28;20515;-63
2022/11/21 11:16:01;;;;;;;9.55;2.15;;;;;;;6.67;100.00;98599.06;4941702;28;20051;-62
2022/11/21 11:18:27;;;;;;;7.97;3.20;;;;;;;6.67;100.00;98594.59;5021529;28;20080;-62
2022/11/21 11:21:10;;;;;;;9.63;1.85;;;;;;;6.68;100.00;98577.78;5044477;28;20061;-62
2022/11/21 11:23:36;;;;;;;12.30;2.03;;;;;;;6.67;100.00;98575.38;5041968;28;20040;-62
2022/11/21 11:26:01;;;;;;;10.73;0.93;;;;;;;6.70;100.00;98554.69;5041455;28;20048;-62
2022/11/21 11:28:34;;;;;;;7.70;1.15;;;;;;;6.73;100.00;98546.34;5038322;28;20131;-62
2022/11/21 11:31:00;;;;;;;17.17;2.22;;;;;;;6.69;100.00;98526.72;5040072;28;20498;-62
2022/11/21 11:33:35;;;;;;;9.38;0.70;;;;;;;6.71;100.00;98521.25;5028957;28;20040;-63
2022/11/21 11:36:11;;;;;;;8.88;2.20;;;;;;;6.75;100.00;98514.53;5033541;28;20037;-63
2022/11/21 11:38:37;;;;;;;3.75;1.60;;;;;;;6.72;100.00;98505.22;5024636;28;20445;-62
2022/11/21 11:41:14;;;;;;;7.88;3.83;;;;;;;6.77;100.00;98497.50;5017077;28;20039;-61
2022/11/21 11:47:29;;;;;;;8.68;1.58;;;;;;;6.71;100.00;98466.75;5019082;28;20041;-60
2022/11/21 11:50:11;;;;;;;8.43;1.38;;;;;;;6.71;100.00;98456.22;5039305;28;20028;-61
2022/11/21 11:53:11;;;;;;;17.17;2.53;;;;;;;6.74;100.00;98445.25;5042088;28;20080;-62
2022/11/21 11:55:45;;;;;;;7.28;1.55;;;;;;;6.76;100.00;98424.78;5033490;28;20172;-62
2022/11/21 11:58:23;;;;;;;7.70;1.52;;;;;;;6.78;100.00;98417.44;5000429;28;20043;-62
2022/11/21 12:01:34;;;;;;;16.08;2.63;;;;;;;6.81;100.00;98405.66;5018163;28;20033;-62
2022/11/21 12:04:13;;;;;;;11.73;2.53;;;;;;;6.85;100.00;98398.16;5003569;28;21139;-64
2022/11/21 12:06:56;;;;;;;13.93;1.58;;;;;;;6.83;100.00;98387.81;5028354;28;20037;-63
2022/11/21 12:09:33;;;;;;;3.65;0.90;;;;;;;6.83;100.00;98376.47;5050848;23;20556;-62
2022/11/21 12:12:06;;;;;;;4.70;0.68;;;;;;;6.80;100.00;98369.03;4982591;28;20380;-62
2022/11/21 12:18:14;;;;;;;6.72;0.40;;;;;;;6.89;100.00;98346.63;5013338;28;20060;-62
2022/11/21 12:21:07;;;;;;;3.30;1.48;;;;;;;6.91;100.00;98334.03;5015944;28;20029;-63
2022/11/21 12:23:54;;;;;;;13.13;1.63;;;;;;;6.92;100.00;98319.88;5021437;28;20041;-63
2022/11/21 12:26:19;;;;;;;15.85;1.73;;;;;;;6.92;100.00;98304.06;5018885;28;20029;-63
2022/11/21 12:29:06;;;;;;;2.95;0.75;;;;;;;7.01;100.00;98292.19;5021621;28;20068;-64
2022/11/21 12:31:50;;;;;;;6.95;1.15;;;;;;;7.03;100.00;98278.78;5014974;28;20041;-64
2022/11/21 12:34:26;;;;;;;9.73;1.05;;;;;;;7.12;100.00;98280.88;5021331;28;20041;-64
2022/11/21 12:37:21;;;;;;;4.28;1.90;;;;;;;7.14;100.00;98267.50;5020012;28;20029;-63
2022/11/21 12:40:01;;;;;;;5.57;2.20;;;;;;;7.18;100.00;98261.56;5020331;28;20069;-63
2022/11/21 12:42:51;;;;;;;7.93;1.27;;;;;;;7.21;100.00;98244.50;5022410;28;20029;-63
2022/11/21 12:45:31;;;;;;;4.50;1.42;;;;;;;7.20;100.00;98238.44;5023241;28;20033;-60
2022/11/21 12:55:00;;;;;;;2.15;0.80;;;;;;;7.15;100.00;98230.38;5022159;28;20068;-63
2022/11/21 12:58:00;;;;;;;9.48;0.93;;;;;;;7.18;100.00;98222.03;5017758;28;20030;-61
2022/11/21 13:00:37;;;;;;;5.25;1.77;;;;;;;7.28;100.00;98218.84;5022836;28;20084;-63
2022/11/21 13:03:03;;;;;;;10.73;1.10;;;;;;;7.27;100.00;98187.44;5020647;28;20041;-63